Aviation Digital Data Service (ADDS)

Output produced by METARs form (2104 UTC 21 February 2017)
found at http://aviationweather.gov/adds/metars/
 
KSWF 211933Z 2120/2224 VRB03KT P6SM BKN150 
     FM212100 20005KT P6SM FEW050 BKN150 
     FM220300 VRB03KT P6SM SCT050 BKN080 
     FM220800 VRB02KT P6SM VCSH SCT007 BKN015 
     PROB30 2212/2215 5SM -RA OVC015 
     FM221600 23003KT P6SM SCT015 BKN025 
     FM221800 23004KT P6SM OVC050 
     FM222100 23004KT P6SM SCT250 AMD NOT SKED